Time;durP1;ratioP1;P1;durP2;ratioP2;P2;SDS_P1;SDS_P2;PMS_P1;PMS_P2;Temp;Humidity;BMP_temperature;BMP_pressure;BME280_temperature;BME280_humidity;BME280_pressure;Samples;Min_cycle;Max_cycle;Signal;HPM_P1;HPM_P2
2022/09/20 00:00:42;;;;;;;33.33;18.63;;;;;;;29.47;65.79;100729.22;5074192;28;66995;-44
2022/09/20 00:03:16;;;;;;;22.75;18.20;;;;;;;29.54;66.26;100738.13;5074658;28;70838;-44
2022/09/20 00:05:48;;;;;;;27.80;17.65;;;;;;;29.55;66.80;100747.88;5078421;28;66097;-45
2022/09/20 00:08:21;;;;;;;29.35;18.55;;;;;;;29.59;66.87;100754.53;5074857;28;70798;-45
2022/09/20 00:11:16;;;;;;;26.15;16.98;;;;;;;29.38;67.09;100740.25;5072826;28;66051;-44
2022/09/20 00:13:52;;;;;;;23.98;17.83;;;;;;;29.39;74.26;100732.97;5073848;28;70866;-45
2022/09/20 00:16:31;;;;;;;23.10;16.08;;;;;;;29.47;74.04;100757.06;5075460;28;66037;-44
2022/09/20 00:19:06;;;;;;;21.60;16.35;;;;;;;29.38;74.44;100753.75;5079209;27;70901;-42
2022/09/20 00:21:40;;;;;;;24.30;15.27;;;;;;;29.39;73.80;100760.84;5077664;27;66909;-45
2022/09/20 00:24:12;;;;;;;32.10;15.18;;;;;;;29.27;74.96;100746.31;5077045;28;69778;-44
2022/09/20 00:26:45;;;;;;;22.95;14.73;;;;;;;29.44;73.49;100767.47;5078236;27;66705;-44
2022/09/20 00:29:17;;;;;;;26.08;14.75;;;;;;;29.43;74.78;100765.81;5076879;28;70589;-45
2022/09/20 00:31:50;;;;;;;18.98;14.55;;;;;;;29.47;74.22;100773.28;5076967;28;66944;-45
2022/09/20 00:37:13;;;;;;;20.75;14.05;;;;;;;29.49;74.90;100767.66;5078004;28;66187;-50
2022/09/20 00:39:46;;;;;;;14.93;13.35;;;;;;;29.46;74.81;100765.41;5073826;27;70729;-43
2022/09/20 00:42:18;;;;;;;16.08;13.88;;;;;;;29.60;71.63;100780.50;5073153;27;66298;-45
2022/09/20 00:44:58;;;;;;;17.35;11.77;;;;;;;29.66;70.51;100776.97;5079279;28;70801;-45
2022/09/20 00:48:00;;;;;;;24.00;11.18;;;;;;;29.00;70.08;100682.59;5073145;28;66299;-47
2022/09/20 00:50:36;;;;;;;10.07;9.38;;;;;;;29.68;69.96;100785.72;5067173;28;70610;-47
2022/09/20 00:53:13;;;;;;;10.40;9.40;;;;;;;29.75;69.10;100810.81;5077187;28;67285;-45
2022/09/20 00:55:56;;;;;;;10.50;9.40;;;;;;;29.66;68.90;100781.56;5073663;27;70914;-46
2022/09/20 00:58:32;;;;;;;10.32;9.35;;;;;;;29.69;68.91;100787.34;5073967;28;66163;-45
2022/09/20 01:01:05;;;;;;;10.73;9.80;;;;;;;29.81;68.75;100807.28;5071638;28;70304;-44
2022/09/20 01:03:40;;;;;;;9.35;8.68;;;;;;;29.76;68.43;100792.75;5073914;27;66566;-46
2022/09/20 01:06:16;;;;;;;9.82;9.02;;;;;;;29.46;68.26;100731.09;5072103;28;70303;-45
2022/09/20 01:08:53;;;;;;;10.43;9.45;;;;;;;29.89;68.80;100811.59;5069768;27;67304;-45
2022/09/20 01:11:27;;;;;;;10.38;9.38;;;;;;;29.88;68.12;100806.41;5068117;27;71016;-45
2022/09/20 01:14:00;;;;;;;10.07;9.18;;;;;;;29.93;68.08;100822.84;5077402;27;66964;-45
2022/09/20 01:16:33;;;;;;;9.73;8.85;;;;;;;29.95;68.18;100818.88;5073954;28;70311;-47
2022/09/20 01:19:34;;;;;;;11.50;8.65;;;;;;;29.32;67.59;100726.78;5075010;27;66049;-46
2022/09/20 01:22:20;;;;;;;13.32;8.93;;;;;;;29.53;68.17;100755.38;5075734;28;69671;-44
2022/09/20 01:25:24;;;;;;;9.35;8.65;;;;;;;29.98;67.96;100818.44;5076396;27;66528;-45
2022/09/20 01:27:57;;;;;;;9.13;8.23;;;;;;;29.99;67.81;100830.09;5038856;28;71487;-45
2022/09/20 01:30:46;;;;;;;11.23;8.70;;;;;;;29.89;67.89;100819.72;5072230;27;66483;-44
2022/09/20 01:33:36;;;;;;;9.10;8.30;;;;;;;30.06;67.83;100838.97;5079473;28;69871;-46
2022/09/20 01:36:13;;;;;;;9.88;7.93;;;;;;;30.09;66.96;100825.03;5078081;28;68721;-45
2022/09/20 01:38:56;;;;;;;9.95;8.50;;;;;;;30.10;67.50;100821.28;5078533;28;70702;-45
2022/09/20 01:41:35;;;;;;;9.07;8.27;;;;;;;30.09;67.09;100825.03;5079468;27;66814;-46
2022/09/20 01:44:27;;;;;;;8.48;7.75;;;;;;;30.08;67.24;100836.91;5075998;28;70865;-46
2022/09/20 01:47:10;;;;;;;7.97;7.40;;;;;;;29.57;67.01;100745.81;5079082;27;66755;-45
2022/09/20 01:50:06;;;;;;;8.18;7.45;;;;;;;30.04;66.73;100836.50;5080312;28;70678;-46
2022/09/20 01:52:59;;;;;;;10.13;7.45;;;;;;;30.16;66.62;100835.81;5079077;28;66000;-45
2022/09/20 01:56:05;;;;;;;7.63;6.93;;;;;;;29.71;66.93;100766.34;5079376;27;70612;-45
2022/09/20 01:59:13;;;;;;;8.57;7.88;;;;;;;30.11;66.37;100843.75;5077288;28;67011;-46
2022/09/20 02:02:06;;;;;;;10.00;7.47;;;;;;;30.19;66.44;100838.09;5076357;28;71385;-46
2022/09/20 02:05:35;;;;;;;7.78;7.28;;;;;;;30.06;66.59;100841.69;5078536;27;65809;-44
2022/09/20 02:08:28;;;;;;;8.50;7.70;;;;;;;30.27;66.35;100836.00;5013669;28;70692;-46
2022/09/20 02:11:15;;;;;;;11.40;7.97;;;;;;;30.24;66.06;100831.00;5015560;28;65928;-45
2022/09/20 02:14:00;;;;;;;7.70;7.10;;;;;;;30.35;65.92;100836.78;5073334;27;70681;-45
2022/09/20 02:17:17;;;;;;;7.57;6.93;;;;;;;30.22;66.58;100818.75;5079578;28;65432;-43
2022/09/20 02:19:59;;;;;;;10.75;7.05;;;;;;;30.36;66.00;100816.78;5056799;28;70490;-45
2022/09/20 02:22:50;;;;;;;8.10;7.43;;;;;;;29.78;66.30;100726.59;5075831;28;66023;-45
2022/09/20 02:25:41;;;;;;;8.02;7.43;;;;;;;30.44;66.30;100814.63;5079741;27;69665;-46
2022/09/20 02:28:34;;;;;;;7.30;6.70;;;;;;;30.47;65.66;100824.19;5078440;28;66969;-46
2022/09/20 02:31:39;;;;;;;7.20;6.45;;;;;;;30.51;65.88;100820.03;5037006;28;71125;-46
2022/09/20 02:34:38;;;;;;;8.25;6.32;;;;;;;30.41;65.77;100823.19;5090923;27;66966;-45
2022/09/20 02:37:32;;;;;;;8.77;6.38;;;;;;;30.43;65.53;100823.00;5075023;28;70422;-46
2022/09/20 02:40:30;;;;;;;6.57;6.07;;;;;;;29.97;65.46;100745.63;5077191;28;66530;-47
2022/09/20 02:43:27;;;;;;;9.50;5.93;;;;;;;30.46;65.47;100825.25;5079336;28;71002;-45
2022/09/20 02:46:00;;;;;;;5.85;5.45;;;;;;;30.59;65.69;100819.75;5079448;28;66840;-46
2022/09/20 02:49:02;;;;;;;5.90;5.50;;;;;;;30.45;65.78;100816.31;5078827;28;70280;-46
2022/09/20 02:51:55;;;;;;;5.95;5.45;;;;;;;30.13;65.42;100745.09;5058441;28;65981;-45
2022/09/20 02:54:36;;;;;;;5.78;5.32;;;;;;;30.64;64.94;100817.19;5075764;28;70994;-46
2022/09/20 02:57:59;;;;;;;7.43;5.85;;;;;;;30.53;65.44;100823.31;5079668;28;67166;-46
2022/09/20 03:00:46;;;;;;;5.82;5.28;;;;;;;30.55;65.41;100810.41;5033343;28;70092;-45
2022/09/20 03:03:33;;;;;;;6.80;6.18;;;;;;;30.06;64.94;100733.47;5076669;28;67084;-45
2022/09/20 03:06:20;;;;;;;6.25;5.72;;;;;;;30.59;65.26;100811.63;5081312;27;69784;-45
2022/09/20 03:09:30;;;;;;;5.93;5.43;;;;;;;30.23;65.06;100756.31;5079318;28;66969;-45
2022/09/20 03:12:42;;;;;;;6.22;5.65;;;;;;;30.63;65.13;100826.38;5076780;28;70185;-47
2022/09/20 03:15:46;;;;;;;5.40;4.90;;;;;;;30.73;65.10;100820.50;5080610;28;66054;-45
2022/09/20 03:18:41;;;;;;;5.97;5.50;;;;;;;30.75;65.05;100814.84;5072481;27;70492;-46
2022/09/20 03:25:53;;;;;;;5.50;5.00;;;;;;;30.69;64.82;100806.53;5075129;27;69734;-46
2022/09/20 03:29:07;;;;;;;6.18;5.38;;;;;;;30.73;65.05;100805.06;5037640;27;66763;-45
2022/09/20 03:32:41;;;;;;;5.38;4.88;;;;;;;30.26;64.59;100723.41;5074799;28;70890;-47
2022/09/20 03:35:57;;;;;;;;;;;;;;;;;;;;;
2022/09/20 03:39:22;;;;;;;5.47;5.07;;;;;;;30.80;64.31;100782.53;5065234;27;70839;-46
2022/09/20 03:42:20;;;;;;;7.63;5.15;;;;;;;30.93;64.70;100787.84;5073842;28;66328;-46
2022/09/20 03:45:37;;;;;;;5.47;5.00;;;;;;;30.85;64.71;100783.53;5076241;28;71286;-46
2022/09/20 03:48:22;;;;;;;4.30;3.95;;;;;;;30.90;64.10;100777.44;5075815;27;65592;-45
2022/09/20 03:51:15;;;;;;;5.30;4.90;;;;;;;30.94;63.99;100773.22;5072584;28;70448;-47
2022/09/20 03:53:50;;;;;;;5.53;5.03;;;;;;;31.02;63.95;100764.81;5075536;28;64507;-46
2022/09/20 03:56:35;;;;;;;6.13;4.65;;;;;;;31.03;64.00;100766.47;5070131;28;70614;-45
2022/09/20 03:59:28;;;;;;;4.93;4.53;;;;;;;31.05;63.75;100766.25;5071774;28;67484;-46
2022/09/20 04:02:33;;;;;;;5.47;4.97;;;;;;;30.95;64.25;100769.47;5072579;28;71166;-45
2022/09/20 04:05:13;;;;;;;5.53;5.03;;;;;;;30.69;64.17;100698.22;5065494;28;66155;-47
2022/09/20 04:07:49;;;;;;;4.40;4.10;;;;;;;31.11;64.25;100754.50;5071333;27;70281;-46
2022/09/20 04:10:48;;;;;;;4.85;4.25;;;;;;;31.03;64.37;100747.50;5069722;28;66845;-46
2022/09/20 04:13:33;;;;;;;5.68;5.00;;;;;;;31.15;63.88;100743.00;5071574;28;70506;-46
2022/09/20 04:16:40;;;;;;;4.90;4.47;;;;;;;31.14;63.97;100735.09;5075313;28;67024;-47
2022/09/20 04:19:40;;;;;;;4.75;4.22;;;;;;;30.70;63.81;100664.72;5076526;28;70868;-46
2022/09/20 04:22:13;;;;;;;4.55;4.25;;;;;;;31.12;63.78;100700.13;5078022;28;66800;-45
2022/09/20 04:25:26;;;;;;;5.65;5.18;;;;;;;31.25;64.20;100703.72;5068737;28;70302;-47
2022/09/20 04:28:27;;;;;;;5.57;4.03;;;;;;;31.16;63.82;100695.06;5033890;27;67240;-47
2022/09/20 04:31:11;;;;;;;5.93;4.60;;;;;;;31.30;63.95;100693.00;5073772;28;70501;-47
2022/09/20 04:33:49;;;;;;;5.22;4.63;;;;;;;30.76;63.58;100592.59;5073982;28;65863;-46
2022/09/20 04:36:57;;;;;;;4.50;4.10;;;;;;;31.16;64.08;100679.63;5073591;28;70962;-47
2022/09/20 04:40:15;;;;;;;4.70;4.32;;;;;;;31.19;63.75;100672.09;5071192;28;66765;-46
2022/09/20 04:43:08;;;;;;;4.30;4.00;;;;;;;31.28;63.66;100668.03;5019195;28;69356;-46
2022/09/20 04:46:36;;;;;;;4.95;4.55;;;;;;;31.22;63.73;100649.97;5034218;28;66800;-46
2022/09/20 04:49:14;;;;;;;4.60;4.20;;;;;;;31.43;63.63;100648.69;5032697;27;69925;-46
2022/09/20 04:52:23;;;;;;;4.78;4.43;;;;;;;31.37;63.22;100651.25;5075050;28;66022;-47
2022/09/20 04:55:09;;;;;;;4.40;4.18;;;;;;;31.37;63.38;100623.31;5075379;28;70841;-46
2022/09/20 04:58:25;;;;;;;5.20;4.65;;;;;;;31.38;63.42;100650.19;5073599;28;66076;-46
2022/09/20 05:01:41;;;;;;;6.40;4.05;;;;;;;31.03;63.10;100560.59;5056653;28;69849;-47
2022/09/20 05:04:44;;;;;;;4.45;4.05;;;;;;;31.50;62.95;100612.28;5066797;28;66223;-48
2022/09/20 05:07:50;;;;;;;4.40;4.07;;;;;;;31.34;63.21;100575.81;5077203;28;70223;-46
2022/09/20 05:10:51;;;;;;;4.25;3.85;;;;;;;31.50;63.32;100596.00;5084016;27;66228;-47
2022/09/20 05:14:01;;;;;;;3.78;3.47;;;;;;;31.58;62.80;100587.53;5077098;28;70736;-46
2022/09/20 05:17:13;;;;;;;4.00;3.70;;;;;;;31.45;63.25;100566.06;5061768;27;66312;-48
2022/09/20 05:20:15;;;;;;;3.57;3.27;;;;;;;31.54;63.26;100575.53;5071159;28;70522;-47
2022/09/20 05:22:57;;;;;;;5.22;3.88;;;;;;;31.66;63.26;100574.72;5068888;28;66742;-46
2022/09/20 05:26:06;;;;;;;4.07;3.67;;;;;;;31.65;62.86;100570.34;5092280;27;70830;-48
2022/09/20 05:29:08;;;;;;;4.00;3.60;;;;;;;31.65;63.02;100582.03;5072671;28;67422;-47
2022/09/20 05:32:00;;;;;;;3.88;3.58;;;;;;;31.69;62.53;100568.84;5072882;27;70731;-48
2022/09/20 05:34:38;;;;;;;4.25;3.95;;;;;;;31.75;62.63;100554.34;5077539;28;66436;-48
2022/09/20 05:37:22;;;;;;;5.50;3.80;;;;;;;31.76;63.01;100564.13;5072864;27;70702;-48
2022/09/20 05:40:22;;;;;;;3.40;3.10;;;;;;;31.74;62.92;100555.41;5070050;28;66389;-46
2022/09/20 05:43:10;;;;;;;3.40;3.10;;;;;;;31.36;62.76;100473.41;5074045;28;70871;-46
2022/09/20 05:46:10;;;;;;;3.55;3.25;;;;;;;31.77;62.65;100544.09;5071208;28;66398;-47
2022/09/20 05:48:58;;;;;;;3.53;3.08;;;;;;;31.80;62.90;100543.63;5073459;28;70299;-46
2022/09/20 05:51:52;;;;;;;4.43;3.40;;;;;;;31.79;62.81;100525.69;5075504;27;66180;-46
2022/09/20 05:54:36;;;;;;;3.90;3.35;;;;;;;31.89;63.05;100517.78;5070084;28;70794;-48
2022/09/20 05:57:36;;;;;;;4.13;3.30;;;;;;;31.80;63.24;100521.91;5072206;28;66923;-47
2022/09/20 06:00:19;;;;;;;3.75;3.30;;;;;;;31.46;62.63;100470.16;5074546;28;70254;-46
2022/09/20 06:03:04;;;;;;;3.83;3.45;;;;;;;31.93;62.77;100526.28;5069645;28;66500;-47
2022/09/20 06:06:06;;;;;;;5.35;3.22;;;;;;;31.86;62.84;100518.25;5070377;28;70996;-47
2022/09/20 06:08:50;;;;;;;3.45;2.97;;;;;;;31.87;63.13;100525.31;5071816;27;66021;-48
2022/09/20 06:11:41;;;;;;;2.95;2.67;;;;;;;31.93;62.96;100516.31;5073233;28;70400;-46
2022/09/20 06:14:37;;;;;;;3.50;3.20;;;;;;;31.39;63.29;100432.28;5072317;28;66868;-47
2022/09/20 06:17:18;;;;;;;2.85;2.65;;;;;;;31.93;62.98;100510.88;5081601;27;70146;-49
2022/09/20 06:20:19;;;;;;;3.13;2.92;;;;;;;31.89;62.88;100496.09;5073822;28;66790;-48
2022/09/20 06:22:58;;;;;;;2.95;2.65;;;;;;;31.95;62.76;100495.16;5075679;28;69995;-48
2022/09/20 06:25:30;;;;;;;3.13;2.83;;;;;;;31.98;63.18;100491.16;5077883;28;67097;-47
2022/09/20 06:28:12;;;;;;;3.05;2.75;;;;;;;31.95;63.04;100487.03;5076922;28;70782;-48
2022/09/20 06:30:50;;;;;;;3.07;2.87;;;;;;;31.25;62.76;100344.13;5076501;28;67289;-48
2022/09/20 06:33:27;;;;;;;2.65;2.45;;;;;;;31.11;63.00;100324.56;5081211;28;70933;-47
2022/09/20 06:42:41;;;;;;;2.97;2.50;;;;;;;31.92;62.73;100427.81;5079967;28;66208;-48
2022/09/20 06:45:13;;;;;;;2.72;2.53;;;;;;;31.97;62.41;100427.13;5079097;28;70747;-48
2022/09/20 06:47:46;;;;;;;2.63;2.42;;;;;;;32.10;62.74;100454.00;5080861;27;66685;-48
2022/09/20 06:50:18;;;;;;;5.35;3.00;;;;;;;32.12;63.04;100449.13;5076632;28;70327;-47
2022/09/20 06:52:52;;;;;;;3.03;2.70;;;;;;;32.13;62.69;100439.94;5078808;27;67091;-48
2022/09/20 06:55:31;;;;;;;3.45;2.60;;;;;;;31.25;62.39;100291.81;5075892;28;70725;-47
2022/09/20 06:58:03;;;;;;;2.38;2.17;;;;;;;32.16;62.56;100431.31;5080582;28;66632;-47
2022/09/20 07:00:38;;;;;;;2.80;2.60;;;;;;;32.19;62.55;100427.31;5075359;27;70523;-48
2022/09/20 07:03:11;;;;;;;3.75;2.72;;;;;;;32.11;62.43;100414.13;5074079;28;66409;-47
2022/09/20 07:05:45;;;;;;;2.72;2.53;;;;;;;32.07;62.42;100402.06;5075180;28;70871;-48
2022/09/20 07:08:17;;;;;;;3.92;2.58;;;;;;;32.21;62.45;100434.16;5074927;28;67014;-48
2022/09/20 07:10:50;;;;;;;3.53;3.10;;;;;;;32.21;62.55;100433.34;5076975;27;70089;-47
2022/09/20 07:13:23;;;;;;;3.20;2.63;;;;;;;32.17;62.40;100413.16;5075404;28;66069;-49
2022/09/20 07:16:04;;;;;;;3.00;2.70;;;;;;;32.14;62.46;100397.34;5079666;27;70804;-47
2022/09/20 07:18:37;;;;;;;6.28;2.83;;;;;;;32.23;62.36;100406.75;5075656;28;66789;-47
2022/09/20 07:21:14;;;;;;;5.03;2.75;;;;;;;31.99;62.33;100362.59;5075067;28;70542;-47
2022/09/20 07:23:52;;;;;;;4.53;2.95;;;;;;;32.13;62.43;100382.16;5078520;28;66063;-47
2022/09/20 07:26:27;;;;;;;4.15;3.42;;;;;;;32.22;62.36;100394.25;5076529;28;71722;-49
2022/09/20 07:29:01;;;;;;;9.25;3.53;;;;;;;32.17;62.42;100380.59;5077482;27;66199;-47
2022/09/20 07:31:33;;;;;;;5.68;3.38;;;;;;;32.28;62.26;100399.53;5073751;28;70893;-47
2022/09/20 07:34:07;;;;;;;8.52;4.03;;;;;;;32.30;62.33;100393.88;5077609;28;66969;-47
2022/09/20 07:36:39;;;;;;;4.40;3.47;;;;;;;32.30;62.52;100396.59;5078288;28;70882;-47
2022/09/20 07:39:12;;;;;;;6.25;3.75;;;;;;;32.21;62.23;100387.19;5068879;28;66950;-48
2022/09/20 07:41:47;;;;;;;11.63;4.53;;;;;;;32.33;62.09;100396.09;5078463;27;70477;-48
2022/09/20 07:44:23;;;;;;;21.75;5.43;;;;;;;32.34;61.89;100389.59;5075740;28;65925;-48
2022/09/20 07:47:00;;;;;;;9.05;4.40;;;;;;;32.28;62.26;100385.16;5079393;28;70714;-47
2022/09/20 07:49:33;;;;;;;11.52;4.20;;;;;;;32.33;62.20;100387.97;5080171;27;67035;-46
2022/09/20 07:52:06;;;;;;;8.38;3.83;;;;;;;32.31;62.19;100381.13;5080913;28;70923;-47
2022/09/20 07:54:39;;;;;;;11.95;4.03;;;;;;;32.25;62.01;100366.63;5076885;28;66670;-47
2022/09/20 07:57:12;;;;;;;11.80;4.57;;;;;;;32.43;61.79;100393.59;5079005;28;70768;-47
2022/09/20 07:59:44;;;;;;;10.45;4.32;;;;;;;32.45;62.06;100393.34;5069890;28;66970;-47
2022/09/20 08:02:17;;;;;;;6.97;4.32;;;;;;;32.46;62.02;100379.56;5095172;27;68348;-46
2022/09/20 08:04:50;;;;;;;12.98;4.20;;;;;;;32.33;61.98;100357.28;5074053;28;66290;-48
2022/09/20 08:07:23;;;;;;;5.68;3.60;;;;;;;32.38;61.84;100355.50;5073208;28;70798;-49
2022/09/20 08:09:56;;;;;;;8.25;3.95;;;;;;;32.15;62.11;100323.00;5072832;28;66077;-48
2022/09/20 08:12:29;;;;;;;5.53;3.70;;;;;;;32.37;61.83;100353.81;5073265;28;71236;-48
2022/09/20 08:15:23;;;;;;;4.85;3.65;;;;;;;32.37;61.76;100345.69;5071587;27;66224;-48
2022/09/20 08:17:56;;;;;;;9.32;3.38;;;;;;;32.40;61.86;100353.38;5070210;28;71054;-47
2022/09/20 08:20:28;;;;;;;5.10;3.33;;;;;;;32.27;61.70;100329.22;5076881;28;66934;-47
2022/09/20 08:23:01;;;;;;;5.00;3.67;;;;;;;32.53;61.50;100373.16;5071320;27;70889;-49
2022/09/20 08:25:56;;;;;;;11.13;3.80;;;;;;;32.51;61.20;100375.28;5078070;27;66878;-47
2022/09/20 08:28:30;;;;;;;12.48;3.72;;;;;;;32.55;61.79;100384.59;5074081;28;70967;-49
2022/09/20 08:31:04;;;;;;;11.10;4.15;;;;;;;31.75;61.44;100259.56;5075724;28;66934;-49
2022/09/20 08:33:37;;;;;;;5.53;3.65;;;;;;;32.57;61.58;100396.88;5078235;28;70233;-48
2022/09/20 08:36:13;;;;;;;5.25;3.33;;;;;;;32.18;61.34;100327.94;5075608;28;66862;-48
2022/09/20 08:38:47;;;;;;;7.03;3.60;;;;;;;32.55;61.30;100390.03;5074661;28;70757;-47
2022/09/20 08:41:55;;;;;;;9.27;3.80;;;;;;;32.51;61.42;100395.09;5078313;27;65035;-48
2022/09/20 08:44:35;;;;;;;10.60;3.88;;;;;;;32.18;61.27;100327.94;5078065;27;69763;-47
2022/09/20 08:47:24;;;;;;;7.45;3.42;;;;;;;32.60;61.29;100390.13;5077700;28;66523;-47
2022/09/20 08:50:00;;;;;;;4.45;3.10;;;;;;;32.23;61.26;100341.63;5066072;28;70288;-48
2022/09/20 08:52:41;;;;;;;14.43;3.85;;;;;;;32.58;61.37;100398.50;5072046;28;67766;-47
2022/09/20 08:55:31;;;;;;;5.32;4.03;;;;;;;32.59;61.08;100400.16;5078484;27;70134;-49
2022/09/20 08:58:13;;;;;;;8.52;3.90;;;;;;;32.61;61.16;100389.88;5070661;28;66665;-48
2022/09/20 09:00:46;;;;;;;5.10;3.67;;;;;;;32.63;61.05;100390.47;5071312;28;70523;-48
2022/09/20 09:03:19;;;;;;;5.68;3.95;;;;;;;32.57;60.60;100379.72;5072922;27;66707;-47
2022/09/20 09:05:57;;;;;;;11.25;3.85;;;;;;;32.61;60.88;100381.72;5071293;27;71148;-47
2022/09/20 09:08:37;;;;;;;6.72;3.95;;;;;;;31.98;61.00;100280.41;5071070;27;66811;-48
2022/09/20 09:11:16;;;;;;;6.53;3.83;;;;;;;32.36;60.96;100354.09;5071226;27;71047;-48
2022/09/20 09:14:47;;;;;;;8.57;3.75;;;;;;;32.67;60.82;100380.75;5075811;28;67111;-47
2022/09/20 09:16:59;;;;;;;6.38;3.78;;;;;;;32.69;60.79;100383.22;5076395;28;70947;-45
2022/09/20 09:19:48;;;;;;;11.02;4.10;;;;;;;32.65;61.15;100398.34;5068657;28;66921;-45
2022/09/20 09:22:41;;;;;;;6.57;4.03;;;;;;;32.30;62.33;100385.75;5070856;28;70267;-46
2022/09/20 09:25:17;;;;;;;6.40;4.32;;;;;;;32.22;63.03;100383.41;5071395;28;66946;-45
2022/09/20 09:28:04;;;;;;;3.83;3.53;;;;;;;31.71;63.60;100314.53;5071737;28;70581;-45
2022/09/20 09:30:42;;;;;;;7.45;4.13;;;;;;;31.60;63.79;100300.75;5070538;27;67307;-45
2022/09/20 09:33:29;;;;;;;5.70;3.67;;;;;;;31.97;64.38;100378.28;5073114;28;70864;-45
2022/09/20 09:36:16;;;;;;;4.30;3.78;;;;;;;31.94;64.67;100385.00;5076306;27;67010;-45
2022/09/20 09:38:49;;;;;;;9.52;3.08;;;;;;;31.93;65.04;100375.25;5071761;28;70759;-45
2022/09/20 09:41:28;;;;;;;4.88;3.63;;;;;;;31.91;65.00;100361.09;5075948;28;67292;-45
2022/09/20 09:44:26;;;;;;;3.80;3.50;;;;;;;31.86;65.12;100374.50;5072622;28;70654;-46
2022/09/20 09:46:59;;;;;;;4.13;3.33;;;;;;;31.58;65.30;100319.16;5069941;28;66723;-45
2022/09/20 09:49:35;;;;;;;3.65;3.33;;;;;;;31.73;65.69;100331.38;5079011;28;70813;-45
2022/09/20 09:52:13;;;;;;;9.88;3.38;;;;;;;31.81;65.60;100347.28;5078100;28;66212;-45
2022/09/20 09:55:03;;;;;;;3.40;3.10;;;;;;;31.79;65.79;100368.41;5077116;28;71049;-45
2022/09/20 09:57:42;;;;;;;3.33;3.03;;;;;;;31.85;65.92;100367.44;5075598;28;67087;-46
2022/09/20 10:00:22;;;;;;;3.65;3.35;;;;;;;31.33;66.38;100283.34;5075546;28;71683;-46
2022/09/20 10:03:29;;;;;;;4.47;4.07;;;;;;;31.81;66.55;100382.53;5074387;28;66896;-46
2022/09/20 10:06:34;;;;;;;3.97;3.67;;;;;;;31.87;66.33;100381.56;5080831;28;71064;-45
2022/09/20 10:09:28;;;;;;;4.15;3.70;;;;;;;31.64;66.34;100359.94;5044446;28;66905;-44
2022/09/20 10:12:12;;;;;;;4.40;3.17;;;;;;;31.87;66.16;100397.03;5079831;27;70328;-45
2022/09/20 10:15:21;;;;;;;7.47;3.97;;;;;;;31.96;65.92;100401.06;5079805;28;66587;-47
2022/09/20 10:18:20;;;;;;;5.45;4.75;;;;;;;32.00;65.35;100381.34;5079153;28;70490;-45
2022/09/20 10:21:13;;;;;;;6.18;4.28;;;;;;;31.76;65.17;100339.88;5080471;28;66923;-47
2022/09/20 10:24:08;;;;;;;;;;;;;;;32.03;65.74;100418.84;5078799;28;70318;-45
2022/09/20 10:27:07;;;;;;;4.50;4.05;;;;;;;32.23;65.13;100423.03;5078486;27;66609;-47
2022/09/20 10:30:00;;;;;;;6.00;4.65;;;;;;;32.38;64.34;100430.69;5060030;28;70616;-45
2022/09/20 10:33:00;;;;;;;7.13;5.20;;;;;;;32.34;64.53;100435.75;5078597;28;66195;-45
2022/09/20 10:36:03;;;;;;;5.72;5.13;;;;;;;32.06;64.74;100398.53;5072131;28;70220;-46
2022/09/20 10:39:17;;;;;;;5.57;5.18;;;;;;;32.25;64.73;100437.19;5076957;28;65841;-47
2022/09/20 10:44:40;;;;;;;7.15;6.63;;;;;;;32.45;64.05;100448.47;5072691;28;66956;-48
2022/09/20 10:47:21;;;;;;;7.80;6.95;;;;;;;32.44;64.22;100457.69;5079682;28;70516;-47
2022/09/20 10:50:03;;;;;;;7.93;6.78;;;;;;;32.47;63.98;100473.50;5070767;28;66207;-46
2022/09/20 10:52:45;;;;;;;11.05;6.45;;;;;;;32.42;64.42;100464.41;5075146;28;71267;-46
2022/09/20 10:55:39;;;;;;;8.68;7.32;;;;;;;31.85;64.67;100391.03;5074888;28;66777;-45
2022/09/20 10:58:23;;;;;;;14.10;8.18;;;;;;;32.41;64.42;100482.59;5075285;28;70601;-45
2022/09/20 11:01:22;;;;;;;11.80;7.53;;;;;;;32.24;64.34;100451.84;5077752;27;66472;-45
2022/09/20 11:04:07;;;;;;;8.18;7.45;;;;;;;32.43;64.37;100488.63;5076233;27;70315;-46
2022/09/20 11:06:57;;;;;;;11.18;7.90;;;;;;;32.43;64.51;100485.91;5078702;28;64633;-46
2022/09/20 11:09:37;;;;;;;8.88;8.20;;;;;;;32.42;64.36;100481.50;5072439;28;71254;-47
2022/09/20 11:12:24;;;;;;;12.18;7.53;;;;;;;32.37;64.79;100488.72;5087499;27;66492;-45
2022/09/20 11:15:24;;;;;;;9.07;7.60;;;;;;;32.30;64.83;100505.16;5074107;28;70162;-47
2022/09/20 11:18:03;;;;;;;10.45;9.45;;;;;;;32.29;65.05;100489.94;5089471;27;66890;-47
2022/09/20 11:20:53;;;;;;;10.57;9.57;;;;;;;31.85;65.13;100421.69;5069939;28;72086;-44
2022/09/20 11:23:41;;;;;;;13.95;9.77;;;;;;;31.89;65.01;100427.44;5075190;28;66138;-45
2022/09/20 11:26:26;;;;;;;13.15;9.88;;;;;;;31.88;64.79;100426.63;5074711;28;70872;-45
2022/09/20 11:29:19;;;;;;;11.15;9.85;;;;;;;31.88;65.07;100437.47;5074228;28;67250;-46
2022/09/20 11:31:57;;;;;;;10.80;9.65;;;;;;;31.88;64.88;100445.63;5074540;28;70755;-47
2022/09/20 11:34:39;;;;;;;10.60;9.50;;;;;;;32.34;64.98;100521.78;5074541;28;67821;-47
2022/09/20 11:37:12;;;;;;;10.07;9.03;;;;;;;32.27;65.06;100530.88;5077597;27;70248;-47
2022/09/20 11:39:54;;;;;;;10.43;9.35;;;;;;;31.56;65.64;100420.75;5065194;28;66917;-45
2022/09/20 11:42:33;;;;;;;14.95;8.98;;;;;;;32.07;65.67;100521.47;5077791;28;71054;-47
2022/09/20 11:45:06;;;;;;;14.93;9.02;;;;;;;32.30;65.53;100543.16;5076357;27;67162;-47
2022/09/20 11:47:54;;;;;;;12.63;9.35;;;;;;;32.24;65.69;100533.25;5076330;28;70435;-47
2022/09/20 11:50:55;;;;;;;12.60;9.48;;;;;;;32.25;65.94;100546.59;5073195;28;66139;-46
2022/09/20 11:53:46;;;;;;;16.33;8.57;;;;;;;32.07;67.68;100556.72;5077966;27;70702;-45
2022/09/20 11:56:24;;;;;;;21.30;9.13;;;;;;;32.08;67.03;100561.94;5078054;28;66984;-46
2022/09/20 11:59:03;;;;;;;17.85;9.23;;;;;;;32.15;67.10;100561.81;5071934;27;71294;-46
2022/09/20 12:01:38;;;;;;;10.02;9.23;;;;;;;32.20;66.89;100581.75;5074443;28;67007;-46
2022/09/20 12:04:13;;;;;;;12.45;9.60;;;;;;;32.21;66.56;100569.84;5072926;28;70913;-46
2022/09/20 12:07:06;;;;;;;16.45;11.32;;;;;;;32.24;66.44;100582.13;5078059;28;67085;-45
2022/09/20 12:09:55;;;;;;;15.70;11.48;;;;;;;31.37;66.95;100445.28;5077579;28;71166;-47
2022/09/20 12:12:36;;;;;;;;;;;;;;;31.91;68.10;100580.81;5076406;28;66375;-47
2022/09/20 12:15:29;;;;;;;12.25;11.02;;;;;;;32.11;67.49;100587.78;5075662;27;70311;-47
2022/09/20 12:18:26;;;;;;;15.38;10.48;;;;;;;31.61;66.52;100497.59;5074293;28;66582;-47
2022/09/20 12:21:04;;;;;;;17.98;10.77;;;;;;;32.21;66.63;100601.59;5074694;27;70254;-46
2022/09/20 12:23:41;;;;;;;14.27;10.23;;;;;;;32.22;66.57;100611.38;5073860;28;67447;-47
2022/09/20 12:26:22;;;;;;;16.27;11.32;;;;;;;32.20;66.65;100625.16;5092862;27;71030;-47
2022/09/20 12:28:57;;;;;;;11.15;9.95;;;;;;;31.70;67.28;100562.34;5077683;28;66085;-45
2022/09/20 12:31:32;;;;;;;11.98;9.38;;;;;;;32.18;67.40;100648.16;5073124;28;69879;-46
2022/09/20 12:34:12;;;;;;;13.55;10.50;;;;;;;31.94;69.52;100658.19;5074721;27;67736;-47
2022/09/20 12:36:54;;;;;;;11.95;10.73;;;;;;;31.74;70.16;100658.47;5077353;28;70436;-48
2022/09/20 12:39:29;;;;;;;11.65;10.20;;;;;;;31.70;71.20;100662.69;5090346;27;66329;-45
2022/09/20 12:42:11;;;;;;;10.98;9.90;;;;;;;31.60;71.59;100664.06;5075401;27;70326;-46
2022/09/20 12:44:49;;;;;;;12.75;9.65;;;;;;;31.57;72.70;100667.25;5075809;28;66974;-47
2022/09/20 12:47:29;;;;;;;15.02;8.93;;;;;;;31.52;72.56;100672.53;5074401;28;70623;-48
2022/09/20 12:53:15;;;;;;;8.07;7.38;;;;;;;31.09;74.03;100615.72;5074773;28;70549;-48
2022/09/20 12:56:20;;;;;;;10.95;7.18;;;;;;;31.34;74.19;100691.50;5077841;28;67218;-47
2022/09/20 12:58:55;;;;;;;7.00;6.47;;;;;;;31.42;74.79;100699.34;5074139;28;71559;-48
2022/09/20 13:01:30;;;;;;;9.35;7.00;;;;;;;31.39;74.87;100691.66;5072176;28;66883;-51
2022/09/20 13:04:40;;;;;;;8.70;5.80;;;;;;;31.23;73.77;100701.25;5076070;27;70140;-48
2022/09/20 13:07:33;;;;;;;6.53;5.47;;;;;;;31.06;71.67;100711.00;5071730;28;66895;-47
2022/09/20 13:10:25;;;;;;;5.95;5.45;;;;;;;30.72;69.98;100665.28;5072931;28;70672;-49
2022/09/20 13:13:03;;;;;;;10.98;5.07;;;;;;;30.46;68.84;100646.63;5071448;28;66640;-50